Time;durP1;ratioP1;P1;durP2;ratioP2;P2;SDS_P1;SDS_P2;PMS_P1;PMS_P2;Temp;Humidity;BMP_temperature;BMP_pressure;BME280_temperature;BME280_humidity;BME280_pressure;Samples;Min_cycle;Max_cycle;Signal;HPM_P1;HPM_P2
2023/09/23 13:41:24;;;;;;;6.85;1.35;;;19.70;78.00;;;;;;7367135;19;20035;-78
2023/09/23 13:44:09;;;;;;;8.18;1.40;;;19.70;77.40;;;;;;7382610;19;20003;-78
2023/09/23 17:03:32;;;;;;;4.13;2.10;;;19.30;91.10;;;;;;7387575;19;20009;-81
2023/09/23 17:06:01;;;;;;;6.90;2.28;;;19.30;91.20;;;;;;7404693;19;20018;-78
2023/09/23 17:08:30;;;;;;;9.10;2.10;;;19.40;91.40;;;;;;7384258;19;20002;-80
2023/09/23 17:10:59;;;;;;;7.68;1.98;;;19.40;91.40;;;;;;7403097;19;20030;-80
2023/09/23 17:13:28;;;;;;;5.97;1.90;;;19.30;91.50;;;;;;7383468;19;20072;-80
2023/09/23 17:15:57;;;;;;;10.85;2.25;;;19.30;91.50;;;;;;7383495;19;20078;-78
2023/09/23 17:18:26;;;;;;;5.70;2.00;;;19.30;91.60;;;;;;7382946;19;20263;-77
2023/09/23 17:21:01;;;;;;;7.22;1.88;;;19.30;91.60;;;;;;7380972;19;20014;-77
2023/09/23 17:23:32;;;;;;;10.18;2.42;;;19.20;91.60;;;;;;7379746;19;20013;-76
2023/09/23 17:26:18;;;;;;;8.85;2.08;;;19.20;91.60;;;;;;7399501;19;20014;-77
2023/09/23 17:29:10;;;;;;;9.82;2.38;;;19.10;91.50;;;;;;7378814;19;20026;-77
2023/09/23 17:31:48;;;;;;;11.32;1.98;;;19.10;91.50;;;;;;7377552;19;20010;-77
2023/09/23 17:34:29;;;;;;;;;;;;;;;;;;;;;
2023/09/23 17:37:15;;;;;;;;;;;;;;;;;;;;;
2023/09/23 17:39:48;;;;;;;6.13;1.98;;;18.90;91.50;;;;;;7379647;19;20007;-76
2023/09/23 17:42:27;;;;;;;7.88;2.58;;;18.80;91.50;;;;;;7378996;19;20006;-79
2023/09/23 17:45:36;;;;;;;8.30;2.88;;;18.70;91.50;;;;;;7379774;19;20013;-81
2023/09/23 17:48:05;;;;;;;13.15;2.85;;;18.60;91.40;;;;;;7276014;19;2004496;-74
2023/09/23 17:50:50;;;;;;;;;;;;;;;;;;;;;
2023/09/23 17:53:53;;;;;;;12.88;3.10;;;18.40;91.40;;;;;;7410615;19;20026;-78
2023/09/23 17:56:24;;;;;;;7.85;2.72;;;18.30;91.40;;;;;;7299824;19;2004282;-78
2023/09/23 17:59:01;;;;;;;8.98;3.42;;;18.20;91.30;;;;;;7416896;19;20006;-77
2023/09/23 18:01:37;;;;;;;10.18;2.05;;;18.10;91.30;;;;;;7394506;19;20023;-78
2023/09/23 18:04:19;;;;;;;;;;;;;;;;;;;;;
2023/09/23 18:06:58;;;;;;;;;;;;;;;;;;;;;
2023/09/23 18:10:01;;;;;;;;;;;;;;;;;;;;;
2023/09/23 18:12:30;;;;;;;7.75;2.92;;;17.80;91.10;;;;;;7383629;19;20023;-77
2023/09/23 18:15:14;;;;;;;;;;;;;;;;;;;;;
2023/09/23 18:17:45;;;;;;;11.35;2.50;;;17.70;91.00;;;;;;7382907;19;20002;-77
2023/09/23 18:20:37;;;;;;;;;;;;;;;;;;;;;
2023/09/23 18:23:32;;;;;;;8.02;2.80;;;17.40;91.40;;;;;;7383666;19;20776;-77
2023/09/23 18:26:29;;;;;;;8.23;3.10;;;17.40;91.50;;;;;;7386808;19;20035;-78
2023/09/23 18:29:00;;;;;;;15.65;2.85;;;17.30;91.60;;;;;;7387944;19;20013;-78
2023/09/23 18:31:40;;;;;;;;;;;;;;;;;;;;;
2023/09/23 18:40:44;;;;;;;;;;;;;;;;;;;;;
2023/09/23 18:43:34;;;;;;;5.35;2.50;;;17.20;92.20;;;;;;7420824;19;20007;-79
2023/09/23 18:46:18;;;;;;;11.07;3.13;;;17.10;92.30;;;;;;7438407;19;20015;-78
2023/09/23 18:49:03;;;;;;;10.40;3.17;;;17.20;92.50;;;;;;7417389;19;20017;-77
2023/09/23 18:51:46;;;;;;;8.20;2.67;;;17.10;92.50;;;;;;7417645;19;20006;-77
2023/09/23 18:54:34;;;;;;;14.65;3.15;;;17.10;92.60;;;;;;7420092;19;20062;-78
2023/09/23 18:57:35;;;;;;;12.63;2.95;;;17.10;92.60;;;;;;7420433;19;20106;-79
2023/09/23 19:00:33;;;;;;;;;;;;;;;;;;;;;
2023/09/23 19:03:28;;;;;;;6.80;3.53;;;17.00;92.60;;;;;;7442469;19;20010;-80
2023/09/23 19:06:37;;;;;;;;;;;;;;;;;;;;;
2023/09/23 19:09:44;;;;;;;10.63;3.20;;;17.00;92.70;;;;;;7418795;19;20014;-79
2023/09/23 19:22:40;;;;;;;;;;;;;;;;;;;;;
2023/09/23 19:25:49;;;;;;;12.70;2.63;;;16.80;92.30;;;;;;7438714;19;20007;-79
2023/09/23 19:28:44;;;;;;;13.80;2.67;;;16.80;92.30;;;;;;7422413;19;20002;-78
2023/09/23 19:31:33;;;;;;;10.98;3.47;;;16.80;92.30;;;;;;7415847;19;20011;-78
2023/09/23 19:34:26;;;;;;;8.23;2.53;;;16.80;92.30;;;;;;7441477;19;20228;-78
2023/09/23 19:37:30;;;;;;;;;;;;;;;;;;;;;
2023/09/23 19:40:23;;;;;;;;;;;;;;;;;;;;;
2023/09/23 19:49:13;;;;;;;77.20;20.50;;;16.60;92.40;;;;;;7417582;19;20014;-79
2023/09/23 19:52:04;;;;;;;27.80;7.57;;;16.50;92.40;;;;;;7417227;19;20014;-78
2023/09/23 19:54:43;;;;;;;10.35;3.92;;;16.50;92.40;;;;;;7438361;19;20237;-78
2023/09/23 19:57:25;;;;;;;13.32;3.55;;;16.40;92.40;;;;;;7418158;19;20250;-79
2023/09/23 20:00:05;;;;;;;15.35;3.45;;;16.40;92.40;;;;;;7418436;19;20282;-77
2023/09/23 20:03:05;;;;;;;;;;;;;;;;;;;;;
2023/09/23 20:06:13;;;;;;;;;;;;;;;;;;;;;
2023/09/23 20:08:58;;;;;;;6.97;2.50;;;16.40;92.30;;;;;;7419847;19;20026;-77
2023/09/23 20:11:37;;;;;;;14.43;2.90;;;16.40;92.30;;;;;;7431899;19;20006;-78
2023/09/23 20:14:27;;;;;;;12.00;3.10;;;16.40;92.20;;;;;;7452635;19;20220;-78
2023/09/23 20:17:19;;;;;;;;;;;;;;;;;;;;;
2023/09/23 20:22:33;;;;;;;13.55;3.13;;;16.40;92.20;;;;;;7415748;19;20371;-78
2023/09/23 20:25:14;;;;;;;10.20;3.28;;;16.40;92.20;;;;;;7416346;19;20006;-77
2023/09/23 20:27:58;;;;;;;;;;;;;;;;;;;;;
2023/09/23 20:30:51;;;;;;;9.07;3.17;;;16.30;92.20;;;;;;7386638;19;20018;-77
2023/09/23 20:33:46;;;;;;;7.25;2.33;;;16.30;92.30;;;;;;7384312;19;20321;-77
2023/09/23 20:36:29;;;;;;;9.13;2.75;;;16.20;92.20;;;;;;7385292;19;20049;-77
2023/09/23 20:39:04;;;;;;;12.88;2.85;;;16.20;92.30;;;;;;7384756;19;20077;-77
2023/09/23 20:42:01;;;;;;;;;;;;;;;;;;;;;
2023/09/23 20:44:30;;;;;;;7.38;3.58;;;16.10;92.50;;;;;;7384089;19;20431;-77
2023/09/23 20:47:24;;;;;;;9.02;3.85;;;16.10;92.30;;;;;;7410092;19;20011;-78
2023/09/23 20:50:09;;;;;;;9.00;3.10;;;16.20;92.40;;;;;;7387144;19;20031;-79
2023/09/23 20:53:03;;;;;;;12.40;3.67;;;16.10;92.40;;;;;;7383533;19;20011;-78
2023/09/23 20:55:43;;;;;;;;;;;;;;;;;;;;;
2023/09/23 20:58:32;;;;;;;;;;;;;;;;;;;;;
2023/09/23 21:01:07;;;;;;;17.25;3.00;;;16.10;92.30;;;;;;7384515;19;20007;-77
2023/09/23 21:09:43;;;;;;;8.27;3.13;;;16.10;92.20;;;;;;7386808;19;19903;-78
2023/09/23 21:15:14;;;;;;;9.07;3.20;;;16.00;92.00;;;;;;7381643;19;20029;-77
2023/09/23 21:17:47;;;;;;;8.65;3.63;;;15.90;92.10;;;;;;7384881;19;20014;-77
2023/09/23 21:20:40;;;;;;;11.73;3.75;;;16.00;92.00;;;;;;7409018;19;20006;-77
2023/09/23 21:26:33;;;;;;;14.70;4.25;;;16.00;91.90;;;;;;7387434;19;20010;-77
2023/09/23 21:29:06;;;;;;;10.50;3.53;;;15.90;91.90;;;;;;7387874;19;20028;-76
2023/09/23 21:31:35;;;;;;;15.35;4.60;;;15.80;92.00;;;;;;7385893;19;19998;-76
2023/09/23 21:34:04;;;;;;;9.07;2.85;;;15.90;92.10;;;;;;7386399;19;20007;-76
2023/09/23 21:36:42;;;;;;;;;;;;;;;;;;;;;
2023/09/23 21:39:21;;;;;;;10.13;3.42;;;15.80;91.90;;;;;;7383713;19;20011;-76
2023/09/23 21:41:59;;;;;;;9.68;3.15;;;15.70;92.00;;;;;;7383442;19;20010;-76
2023/09/23 21:44:36;;;;;;;7.97;3.50;;;15.70;91.80;;;;;;7384119;19;20021;-75
2023/09/23 21:47:33;;;;;;;8.27;3.10;;;15.70;91.80;;;;;;7406770;19;20010;-77
2023/09/23 21:50:35;;;;;;;;;;;;;;;;;;;;;
2023/09/23 21:53:25;;;;;;;17.27;4.03;;;15.70;91.90;;;;;;7380182;19;20856;-76
2023/09/23 21:55:58;;;;;;;11.27;3.70;;;15.70;91.90;;;;;;7382797;19;20033;-78
2023/09/23 21:58:54;;;;;;;23.70;4.25;;;15.60;92.00;;;;;;7403494;19;20090;-77
2023/09/23 22:01:50;;;;;;;;;;;;;;;;;;;;;
2023/09/23 22:04:25;;;;;;;11.77;3.63;;;15.60;91.90;;;;;;7383781;19;20014;-76
2023/09/23 22:06:56;;;;;;;10.57;3.65;;;15.60;91.90;;;;;;7382946;19;20011;-78
2023/09/23 22:09:28;;;;;;;13.30;3.45;;;15.60;91.90;;;;;;7382566;19;20021;-77
2023/09/23 22:11:58;;;;;;;12.18;3.30;;;15.60;91.80;;;;;;7383535;19;20023;-77
2023/09/23 22:14:42;;;;;;;4.85;2.97;;;15.50;91.70;;;;;;7388001;19;20006;-76
2023/09/23 22:17:26;;;;;;;;;;;;;;;;;;;;;
2023/09/23 22:19:55;;;;;;;9.57;3.72;;;15.50;91.80;;;;;;7380033;19;20827;-77
2023/09/23 22:22:27;;;;;;;9.73;3.97;;;15.50;91.70;;;;;;7403560;19;20033;-76
2023/09/23 22:28:17;;;;;;;12.80;4.97;;;15.50;91.50;;;;;;7386937;19;20246;-80
2023/09/23 22:31:15;;;;;;;16.65;4.55;;;15.60;91.60;;;;;;7395392;19;20046;-78
2023/09/23 22:33:45;;;;;;;9.95;4.03;;;15.50;92.00;;;;;;7401023;19;20011;-77
2023/09/23 22:36:27;;;;;;;;;;;;;;;;;;;;;
2023/09/23 22:42:35;;;;;;;;;;;15.40;92.00;;;;;;7382871;19;20082;-77
2023/09/23 22:45:08;;;;;;;12.13;4.43;;;15.40;91.90;;;;;;7381288;19;19910;-77
2023/09/23 22:48:07;;;;;;;13.48;4.72;;;15.40;91.80;;;;;;7386592;19;20014;-78
2023/09/23 22:50:38;;;;;;;11.70;3.92;;;15.30;91.90;;;;;;7381807;19;20006;-76
2023/09/23 22:53:07;;;;;;;17.92;4.05;;;15.30;91.70;;;;;;7402724;19;20006;-76
2023/09/23 22:55:36;;;;;;;12.90;3.85;;;15.20;91.80;;;;;;7376994;19;20003;-78
2023/09/23 22:58:06;;;;;;;8.30;3.78;;;15.20;91.80;;;;;;7381240;19;20007;-77
2023/09/23 23:00:35;;;;;;;11.50;4.00;;;15.20;91.80;;;;;;7378279;19;20006;-78
2023/09/23 23:03:08;;;;;;;18.33;4.07;;;15.20;91.80;;;;;;7378520;19;20023;-77
2023/09/23 23:05:38;;;;;;;10.57;3.53;;;15.20;91.80;;;;;;7376172;19;20019;-77
2023/09/23 23:08:07;;;;;;;7.13;3.35;;;15.20;91.70;;;;;;7402156;19;20010;-77
2023/09/23 23:10:36;;;;;;;16.95;4.72;;;15.20;91.70;;;;;;7380788;19;20465;-77
2023/09/23 23:13:09;;;;;;;7.28;3.25;;;15.20;91.60;;;;;;7380281;19;20006;-77
2023/09/23 23:15:38;;;;;;;11.50;3.40;;;15.10;91.60;;;;;;7380191;19;20033;-76
2023/09/23 23:18:09;;;;;;;8.48;3.85;;;15.10;91.60;;;;;;7377869;19;20570;-77
2023/09/23 23:20:38;;;;;;;11.75;4.10;;;15.10;91.50;;;;;;7378376;19;20007;-77
2023/09/23 23:23:07;;;;;;;15.18;3.72;;;15.10;91.60;;;;;;7402033;19;20020;-77
2023/09/23 23:25:37;;;;;;;10.52;3.72;;;15.10;91.50;;;;;;7380041;19;20032;-77
2023/09/23 23:28:07;;;;;;;8.83;3.60;;;15.10;91.40;;;;;;7377679;19;20010;-77
2023/09/23 23:30:36;;;;;;;9.80;3.67;;;15.10;91.40;;;;;;7379017;19;20248;-77
2023/09/23 23:33:05;;;;;;;8.57;3.53;;;15.00;91.50;;;;;;7378628;19;20024;-77
2023/09/23 23:35:38;;;;;;;7.78;3.20;;;15.00;91.50;;;;;;7379111;19;20011;-77
2023/09/23 23:38:11;;;;;;;9.02;2.92;;;15.00;91.70;;;;;;7399215;19;20009;-77
2023/09/23 23:40:39;;;;;;;6.70;3.10;;;15.00;91.70;;;;;;7381076;19;20015;-76
2023/09/23 23:43:09;;;;;;;7.57;3.10;;;15.00;91.50;;;;;;7376452;19;20371;-77
2023/09/23 23:45:38;;;;;;;8.93;3.17;;;15.00;91.40;;;;;;7376865;19;20061;-77
2023/09/23 23:48:07;;;;;;;10.07;3.75;;;15.00;91.40;;;;;;7377674;19;20039;-76
2023/09/23 23:50:39;;;;;;;11.02;3.50;;;15.10;91.20;;;;;;7380264;19;20015;-76
2023/09/23 23:53:07;;;;;;;13.05;3.70;;;15.00;91.20;;;;;;7403096;19;20010;-76
2023/09/23 23:55:36;;;;;;;14.52;3.88;;;15.00;91.60;;;;;;7376759;19;20006;-76
2023/09/23 23:58:05;;;;;;;7.68;3.67;;;15.00;91.40;;;;;;7376017;19;20276;-76
